Terminal Aerodrome Forecast
Issued by NWS

Home | Current Version | Previous Version | Text Only | Print | Product List | Glossary On
Versions: 1 2 3 4 5 6 7 8 9 10 11 12 13 14 15 16 17 18 19 20 21
000
FTUS43 KLSX 010200 AAB
TAFUIN
TAF AMD
KUIN 010200Z 0102/0124 13004KT 2SM -SN BR OVC025
      TEMPO 0102/0104 1SM -SN
     FM011000 VRB04KT 4SM -SN BR OVC008
     FM011400 29005KT 6SM -SN OVC010
     FM011600 35006KT P6SM OVC010=

USA.gov is the U.S. government's official web portal to all federal, state and local government web resources and services.